createdAt,value
2022-11-15T00:00:34.784Z,98817.88
2022-11-15T00:01:58.405Z,98817.88
2022-11-15T00:03:21.520Z,98818.59
2022-11-15T00:04:43.710Z,98823.69
2022-11-15T00:06:06.701Z,98820.94
2022-11-15T00:07:53.957Z,98812.25
2022-11-15T00:09:10.181Z,98810.69
2022-11-15T00:10:31.676Z,98815.84
2022-11-15T00:11:54.510Z,98802.91
2022-11-15T00:13:15.838Z,98805.56
2022-11-15T00:14:37.810Z,98810.00
2022-11-15T00:16:00.485Z,98815.19
2022-11-15T00:17:24.022Z,98810.94
2022-11-15T00:18:50.312Z,98816.84
2022-11-15T00:20:13.838Z,98807.34
2022-11-15T00:21:35.927Z,98802.16
2022-11-15T00:22:58.277Z,98809.09
2022-11-15T00:24:20.765Z,98802.34
2022-11-15T00:25:42.328Z,98804.13
2022-11-15T00:27:07.851Z,98800.88
2022-11-15T00:28:29.441Z,98800.97
2022-11-15T00:29:51.706Z,98806.31
2022-11-15T00:31:14.610Z,98802.16
2022-11-15T00:32:38.387Z,98798.81
2022-11-15T00:33:59.789Z,98806.94
2022-11-15T00:35:22.519Z,98807.97
2022-11-15T00:36:44.871Z,98808.94
2022-11-15T00:38:06.306Z,98796.19
2022-11-15T00:39:28.416Z,98803.09
2022-11-15T00:40:49.538Z,98807.44
2022-11-15T00:42:11.499Z,98800.53
2022-11-15T00:43:33.540Z,98792.69
2022-11-15T00:44:55.920Z,98799.44
2022-11-15T00:46:18.107Z,98801.09
2022-11-15T00:47:40.589Z,98790.75
2022-11-15T00:49:03.147Z,98795.09
2022-11-15T00:50:25.707Z,98797.59
2022-11-15T00:51:47.830Z,98795.66
2022-11-15T00:53:09.149Z,98791.31
2022-11-15T00:54:31.409Z,98792.91
2022-11-15T00:55:52.658Z,98789.50
2022-11-15T00:57:14.779Z,98793.84
2022-11-15T00:58:37.186Z,98793.00
2022-11-15T00:59:58.325Z,98787.91
2022-11-15T01:01:20.750Z,98785.41
2022-11-15T01:02:43.561Z,98781.06
2022-11-15T01:04:06.218Z,98779.31
2022-11-15T01:05:27.459Z,98778.38
2022-11-15T01:06:49.663Z,98771.47
2022-11-15T01:08:14.188Z,98768.03
2022-11-15T01:09:36.647Z,98773.22
2022-11-15T01:11:03.278Z,98771.41
2022-11-15T01:12:24.569Z,98770.47
2022-11-15T01:13:46.856Z,98769.53
2022-11-15T01:15:09.087Z,98765.09
2022-11-15T01:16:31.401Z,98771.94
2022-11-15T01:17:54.146Z,98769.38
2022-11-15T01:19:16.627Z,98775.44
2022-11-15T01:20:41.349Z,98765.28
2022-11-15T01:22:03.467Z,98773.06
2022-11-15T01:23:25.924Z,98767.16
2022-11-15T01:24:47.057Z,98772.22
2022-11-15T01:26:12.866Z,98766.94
2022-11-15T01:27:35.461Z,98763.44
2022-11-15T01:28:57.777Z,98766.13
2022-11-15T01:30:20.524Z,98769.53
2022-11-15T01:31:42.879Z,98761.78
2022-11-15T01:33:06.886Z,98761.69
2022-11-15T01:34:28.037Z,98766.94
2022-11-15T01:35:50.522Z,98761.88
2022-11-15T01:37:12.926Z,98756.72
2022-11-15T01:38:34.458Z,98760.13
2022-11-15T01:39:56.997Z,98758.47
2022-11-15T01:41:19.698Z,98756.03
2022-11-15T01:42:42.258Z,98755.38
2022-11-15T01:44:43.569Z,98752.78
2022-11-15T01:46:08.596Z,98748.66
2022-11-15T01:47:32.287Z,98742.66
2022-11-15T01:48:55.840Z,98739.25
2022-11-15T01:50:20.459Z,98742.56
2022-11-15T01:51:41.959Z,98747.47
2022-11-15T01:53:03.978Z,98738.72
2022-11-15T01:54:25.789Z,98735.91
2022-11-15T01:55:48.288Z,98738.41
2022-11-15T01:57:11.388Z,98735.91
2022-11-15T01:58:37.508Z,98733.53
2022-11-15T01:59:59.068Z,98724.19
2022-11-15T02:01:21.954Z,98730.38
2022-11-15T02:02:44.158Z,98723.53
2022-11-15T02:04:10.738Z,98721.03
2022-11-15T02:05:33.468Z,98717.72
2022-11-15T02:06:55.078Z,98712.63
2022-11-15T02:08:21.246Z,98708.38
2022-11-15T02:09:43.128Z,98715.22
2022-11-15T02:11:07.367Z,98708.38
2022-11-15T02:12:28.848Z,98706.81
2022-11-15T02:13:51.297Z,98706.91
2022-11-15T02:15:14.247Z,98707.00
2022-11-15T02:16:41.096Z,98706.25
2022-11-15T02:18:13.117Z,98705.50
2022-11-15T02:19:55.976Z,98704.78
2022-11-15T02:21:26.816Z,98706.59
2022-11-15T02:22:58.929Z,98695.63
2022-11-15T02:24:50.197Z,98699.22
2022-11-15T02:26:38.408Z,98701.16
2022-11-15T02:28:23.884Z,98690.16
2022-11-15T02:30:07.419Z,98689.34
2022-11-15T02:31:34.075Z,98696.44
2022-11-15T02:33:00.675Z,98696.53
2022-11-15T02:34:29.052Z,98684.59
2022-11-15T02:35:59.858Z,98687.19
2022-11-15T02:37:28.779Z,98692.44
2022-11-15T02:38:56.679Z,98683.97
2022-11-15T02:40:25.487Z,98685.78
2022-11-15T02:41:50.819Z,98682.38
2022-11-15T02:43:30.996Z,98684.22
2022-11-15T02:44:53.020Z,98692.91
2022-11-15T02:46:20.183Z,98677.56
2022-11-15T02:47:45.486Z,98678.41
2022-11-15T02:49:08.208Z,98674.88
2022-11-15T02:50:32.448Z,98674.16
2022-11-15T02:51:54.169Z,98670.66
2022-11-15T02:53:17.496Z,98675.72
2022-11-15T02:54:39.798Z,98668.78
2022-11-15T02:56:01.041Z,98671.38
2022-11-15T02:57:32.291Z,98660.16
2022-11-15T02:59:22.329Z,98662.91
2022-11-15T03:00:49.750Z,98664.56
2022-11-15T03:02:20.287Z,98672.25
2022-11-15T03:03:55.279Z,98671.38
2022-11-15T03:05:22.167Z,98663.72
2022-11-15T03:06:48.764Z,98662.06
2022-11-15T03:08:14.596Z,98661.97
2022-11-15T03:09:38.268Z,98665.22
2022-11-15T03:11:05.607Z,98661.81
2022-11-15T03:12:30.758Z,98659.22
2022-11-15T03:13:59.480Z,98660.16
2022-11-15T03:15:24.676Z,98661.03
2022-11-15T03:16:50.194Z,98655.03
2022-11-15T03:18:14.889Z,98656.75
2022-11-15T03:19:43.948Z,98652.47
2022-11-15T03:21:08.700Z,98657.72
2022-11-15T03:22:35.639Z,98652.56
2022-11-15T03:23:57.301Z,98646.47
2022-11-15T03:25:22.426Z,98653.28
2022-11-15T03:26:46.011Z,98646.56
2022-11-15T03:28:09.616Z,98644.91
2022-11-15T03:29:35.357Z,98655.25
2022-11-15T03:30:56.946Z,98643.16
2022-11-15T03:32:21.905Z,98641.31
2022-11-15T03:33:44.647Z,98643.81
2022-11-15T03:35:09.776Z,98643.63
2022-11-15T03:36:33.577Z,98638.34
2022-11-15T03:37:58.495Z,98631.38
2022-11-15T03:39:20.975Z,98632.19
2022-11-15T03:40:47.027Z,98631.16
2022-11-15T03:42:18.387Z,98631.00
2022-11-15T03:43:45.644Z,98618.75
2022-11-15T03:45:15.561Z,98629.06
2022-11-15T03:46:42.070Z,98629.91
2022-11-15T03:48:07.867Z,98624.72
2022-11-15T03:49:32.157Z,98627.31
2022-11-15T03:50:56.200Z,98612.66
2022-11-15T03:52:19.211Z,98623.97
2022-11-15T03:53:41.678Z,98620.50
2022-11-15T03:55:05.447Z,98613.47
2022-11-15T03:56:30.218Z,98616.06
2022-11-15T03:57:54.866Z,98616.63
2022-11-15T03:59:19.287Z,98612.28
2022-11-15T04:00:41.827Z,98600.28
2022-11-15T04:02:03.328Z,98606.28
2022-11-15T04:03:25.486Z,98604.53
2022-11-15T04:04:47.016Z,98600.38
2022-11-15T04:06:11.006Z,98596.97
2022-11-15T04:07:33.197Z,98589.13
2022-11-15T04:08:54.497Z,98600.28
2022-11-15T04:10:16.938Z,98590.78
2022-11-15T04:11:38.218Z,98592.44
2022-11-15T04:13:00.791Z,98587.25
2022-11-15T04:14:22.929Z,98586.34
2022-11-15T04:15:45.366Z,98587.25
2022-11-15T04:17:06.831Z,98586.53
2022-11-15T04:18:32.016Z,98585.78
2022-11-15T04:20:11.281Z,98584.06
2022-11-15T04:21:52.159Z,98582.28
2022-11-15T04:23:33.332Z,98585.78
2022-11-15T04:24:56.081Z,98579.88
2022-11-15T04:26:20.443Z,98580.06
2022-11-15T04:27:42.634Z,98575.75
2022-11-15T04:29:22.407Z,98577.47
2022-11-15T04:30:45.294Z,98576.75
2022-11-15T04:32:07.866Z,98568.25
2022-11-15T04:33:30.300Z,98573.50
2022-11-15T04:34:52.359Z,98565.94
2022-11-15T04:36:31.782Z,98570.28
2022-11-15T04:37:56.117Z,98566.03
2022-11-15T04:39:17.599Z,98559.41
2022-11-15T04:40:40.407Z,98573.22
2022-11-15T04:42:05.057Z,98571.56
2022-11-15T04:43:27.497Z,98563.81
2022-11-15T04:44:48.616Z,98571.66
2022-11-15T04:46:10.866Z,98566.59
2022-11-15T04:47:33.188Z,98566.75
2022-11-15T04:48:58.579Z,98563.34
2022-11-15T04:50:21.749Z,98565.22
2022-11-15T04:51:43.087Z,98566.09
2022-11-15T04:53:07.193Z,98567.13
2022-11-15T04:54:28.409Z,98565.47
2022-11-15T04:55:50.766Z,98562.13
2022-11-15T04:57:12.050Z,98549.31
2022-11-15T04:58:34.933Z,98553.66
2022-11-15T04:59:57.189Z,98551.06
2022-11-15T05:01:18.745Z,98555.31
2022-11-15T05:02:55.137Z,98549.31
2022-11-15T05:04:23.046Z,98546.84
2022-11-15T05:05:44.555Z,98541.00
2022-11-15T05:07:07.157Z,98539.47
2022-11-15T05:08:30.988Z,98536.88
2022-11-15T05:09:52.095Z,98536.88
2022-11-15T05:11:14.417Z,98537.69
2022-11-15T05:12:35.978Z,98535.13
2022-11-15T05:13:58.425Z,98523.88
2022-11-15T05:15:19.925Z,98528.22
2022-11-15T05:16:42.368Z,98528.94
2022-11-15T05:18:05.026Z,98540.09
2022-11-15T05:19:27.550Z,98538.44
2022-11-15T05:20:49.922Z,98536.69
2022-11-15T05:22:12.517Z,98524.69
2022-11-15T05:23:35.346Z,98535.13
2022-11-15T05:24:57.688Z,98539.63
2022-11-15T05:26:19.597Z,98535.56
2022-11-15T05:27:42.029Z,98534.06
2022-11-15T05:29:04.566Z,98526.53
2022-11-15T05:30:27.888Z,98523.13
2022-11-15T05:31:50.681Z,98525.75
2022-11-15T05:33:13.531Z,98525.03
2022-11-15T05:34:34.696Z,98519.22
2022-11-15T05:36:00.288Z,98517.56
2022-11-15T05:37:22.405Z,98518.47
2022-11-15T05:38:46.396Z,98517.66
2022-11-15T05:40:10.148Z,98516.81
2022-11-15T05:41:35.071Z,98514.25
2022-11-15T05:42:57.912Z,98512.50
2022-11-15T05:44:23.676Z,98508.16
2022-11-15T05:45:45.944Z,98512.66
2022-11-15T05:47:10.130Z,98506.78
2022-11-15T05:48:32.479Z,98517.19
2022-11-15T05:49:55.715Z,98506.00
2022-11-15T05:51:17.740Z,98517.19
2022-11-15T05:52:40.388Z,98501.88
2022-11-15T05:54:04.297Z,98512.19
2022-11-15T05:55:26.859Z,98509.50
2022-11-15T05:56:49.395Z,98507.75
2022-11-15T05:58:12.111Z,98504.28
2022-11-15T05:59:34.434Z,98500.84
2022-11-15T06:00:56.821Z,98509.44
2022-11-15T06:02:19.301Z,98510.28
2022-11-15T06:03:40.400Z,98509.25
2022-11-15T06:05:02.507Z,98506.66
2022-11-15T06:06:24.566Z,98509.16
2022-11-15T06:07:45.855Z,98511.47
2022-11-15T06:09:09.569Z,98515.63
2022-11-15T06:10:31.736Z,98515.44
2022-11-15T06:11:54.148Z,98510.09
2022-11-15T06:13:16.620Z,98513.41
2022-11-15T06:14:38.989Z,98513.25
2022-11-15T06:15:59.981Z,98516.56
2022-11-15T06:17:22.150Z,98511.41
2022-11-15T06:18:44.512Z,98507.81
2022-11-15T06:20:07.658Z,98513.72
2022-11-15T06:21:30.344Z,98511.22
2022-11-15T06:22:52.627Z,98512.88
2022-11-15T06:24:16.407Z,98506.06
2022-11-15T06:25:37.830Z,98508.66
2022-11-15T06:27:00.179Z,98513.72
2022-11-15T06:28:21.350Z,98513.63
2022-11-15T06:29:43.687Z,98513.63
2022-11-15T06:31:06.238Z,98511.06
2022-11-15T06:32:28.768Z,98521.28
2022-11-15T06:33:51.797Z,98515.09
2022-11-15T06:35:14.702Z,98521.84
2022-11-15T06:36:37.519Z,98519.06
2022-11-15T06:38:04.379Z,98518.16
2022-11-15T06:39:28.198Z,98527.47
2022-11-15T06:40:50.338Z,98518.78
2022-11-15T06:42:12.527Z,98520.38
2022-11-15T06:43:35.237Z,98524.50
2022-11-15T06:44:57.418Z,98515.84
2022-11-15T06:46:19.556Z,98521.00
2022-11-15T06:47:47.806Z,98514.94
2022-11-15T06:49:09.893Z,98516.59
2022-11-15T06:50:32.452Z,98517.41
2022-11-15T06:51:54.827Z,98520.81
2022-11-15T06:53:17.278Z,98514.84
2022-11-15T06:54:41.167Z,98519.06
2022-11-15T06:56:03.869Z,98513.91
2022-11-15T06:57:26.040Z,98521.56
2022-11-15T06:58:48.265Z,98514.56
2022-11-15T07:00:12.446Z,98510.03
2022-11-15T07:01:34.829Z,98516.03
2022-11-15T07:02:56.157Z,98516.03
2022-11-15T07:04:18.722Z,98517.69
2022-11-15T07:05:41.168Z,98517.88
2022-11-15T07:07:03.492Z,98521.28
2022-11-15T07:08:26.618Z,98513.34
2022-11-15T07:09:50.339Z,98514.72
2022-11-15T07:11:12.748Z,98526.53
2022-11-15T07:12:34.806Z,98522.09
2022-11-15T07:13:57.137Z,98518.59
2022-11-15T07:15:20.284Z,98524.31
2022-11-15T07:16:42.665Z,98536.03
2022-11-15T07:18:05.209Z,98525.41
2022-11-15T07:19:27.718Z,98532.16
2022-11-15T07:20:50.038Z,98527.63
2022-11-15T07:22:12.367Z,98535.28
2022-11-15T07:23:35.014Z,98533.69
2022-11-15T07:24:58.449Z,98529.56
2022-11-15T07:26:21.092Z,98528.63
2022-11-15T07:27:43.221Z,98531.22
2022-11-15T07:29:05.649Z,98528.81
2022-11-15T07:30:28.704Z,98527.16
2022-11-15T07:31:52.184Z,98524.50
2022-11-15T07:33:14.609Z,98525.13
2022-11-15T07:34:36.758Z,98524.13
2022-11-15T07:36:02.709Z,98532.81
2022-11-15T07:37:25.538Z,98527.81
2022-11-15T07:38:47.635Z,98521.16
2022-11-15T07:40:12.610Z,98510.81
2022-11-15T07:41:34.847Z,98517.66
2022-11-15T07:43:01.261Z,98522.09
2022-11-15T07:44:23.859Z,98518.84
2022-11-15T07:45:47.398Z,98523.03
2022-11-15T07:47:09.966Z,98516.00
2022-11-15T07:48:43.292Z,98521.81
2022-11-15T07:50:07.686Z,98508.88
2022-11-15T07:51:29.825Z,98519.94
2022-11-15T07:52:56.181Z,98519.56
2022-11-15T07:54:18.282Z,98516.34
2022-11-15T07:55:43.028Z,98517.59
2022-11-15T07:57:07.455Z,98520.63
2022-11-15T07:58:29.955Z,98514.16
2022-11-15T07:59:52.468Z,98517.34
2022-11-15T08:01:14.995Z,98516.13
2022-11-15T08:02:37.493Z,98521.75
2022-11-15T08:03:59.908Z,98517.19
2022-11-15T08:05:22.350Z,98516.19
2022-11-15T08:06:44.657Z,98514.22
2022-11-15T08:08:07.798Z,98514.13
2022-11-15T08:09:30.211Z,98516.72
2022-11-15T08:10:54.094Z,98511.84
2022-11-15T08:12:17.239Z,98505.91
2022-11-15T08:13:39.698Z,98510.91
2022-11-15T08:15:02.039Z,98516.72
2022-11-15T08:16:24.298Z,98515.69
2022-11-15T08:17:46.767Z,98508.44
2022-11-15T08:19:09.339Z,98508.38
2022-11-15T08:20:32.450Z,98503.72
2022-11-15T08:21:54.610Z,98501.03
2022-11-15T08:23:17.170Z,98503.63
2022-11-15T08:24:40.640Z,98503.41
2022-11-15T08:26:05.807Z,98504.16
2022-11-15T08:27:28.159Z,98498.16
2022-11-15T08:28:50.607Z,98502.28
2022-11-15T08:30:14.744Z,98502.28
2022-11-15T08:31:38.178Z,98505.63
2022-11-15T08:33:01.290Z,98496.69
2022-11-15T08:34:23.445Z,98502.19
2022-11-15T08:35:46.163Z,98503.56
2022-11-15T08:37:08.436Z,98501.38
2022-11-15T08:38:32.185Z,98500.34
2022-11-15T08:39:54.510Z,98509.59
2022-11-15T08:41:25.441Z,98504.69
2022-11-15T08:42:48.680Z,98486.06
2022-11-15T08:44:11.254Z,98494.13
2022-11-15T08:45:33.875Z,98497.97
2022-11-15T08:46:56.221Z,98497.66
2022-11-15T08:48:19.037Z,98488.63
2022-11-15T08:49:41.485Z,98492.69
2022-11-15T08:51:04.072Z,98489.69
2022-11-15T08:52:26.511Z,98492.78
2022-11-15T08:53:48.947Z,98488.94
2022-11-15T08:55:11.457Z,98498.06
2022-11-15T08:56:35.341Z,98493.56
2022-11-15T08:57:59.761Z,98492.56
2022-11-15T08:59:22.399Z,98495.03
2022-11-15T09:00:44.978Z,98488.69
2022-11-15T09:02:08.282Z,98489.78
2022-11-15T09:03:30.830Z,98487.59
2022-11-15T09:04:53.556Z,98488.00
2022-11-15T09:06:16.095Z,98494.50
2022-11-15T09:07:38.397Z,98488.16
2022-11-15T09:09:00.770Z,98479.56
2022-11-15T09:10:23.632Z,98484.50
2022-11-15T09:11:47.720Z,98487.84
2022-11-15T09:13:10.258Z,98485.94
2022-11-15T09:14:32.761Z,98481.38
2022-11-15T09:15:55.698Z,98474.78
2022-11-15T09:17:21.772Z,98483.69
2022-11-15T09:18:47.434Z,98477.59
2022-11-15T09:20:11.087Z,98481.91
2022-11-15T09:21:33.690Z,98474.22
2022-11-15T09:22:56.619Z,98474.50
2022-11-15T09:24:19.420Z,98476.28
2022-11-15T09:25:41.116Z,98468.75
2022-11-15T09:27:05.502Z,98473.00
2022-11-15T09:28:26.710Z,98473.25
2022-11-15T09:29:49.316Z,98469.94
2022-11-15T09:31:13.182Z,98467.72
2022-11-15T09:32:39.373Z,98462.03
2022-11-15T09:34:01.999Z,98455.66
2022-11-15T09:35:24.852Z,98458.72
2022-11-15T09:36:47.442Z,98460.25
2022-11-15T09:38:09.999Z,98454.00
2022-11-15T09:39:32.318Z,98454.00
2022-11-15T09:41:02.314Z,98456.59
2022-11-15T09:42:37.521Z,98452.09
2022-11-15T09:44:11.689Z,98448.44
2022-11-15T09:45:37.729Z,98447.22
2022-11-15T09:47:16.959Z,98433.63
2022-11-15T09:48:57.260Z,98443.78
2022-11-15T09:50:34.449Z,98436.53
2022-11-15T09:51:47.840Z,98431.41
2022-11-15T09:52:51.971Z,98426.16
2022-11-15T09:55:34.834Z,98416.34
2022-11-15T09:56:40.632Z,98422.44
2022-11-15T09:57:50.839Z,98419.22
2022-11-15T09:59:00.800Z,98411.56
2022-11-15T10:00:44.659Z,98404.09
2022-11-15T10:01:41.341Z,98407.81
2022-11-15T10:03:01.181Z,98409.78
2022-11-15T10:04:10.538Z,98406.53
2022-11-15T10:05:19.530Z,98393.13
2022-11-15T10:06:26.322Z,98394.50
2022-11-15T10:07:35.256Z,98390.56
2022-11-15T10:08:50.723Z,98382.34
2022-11-15T10:09:57.921Z,98392.47
2022-11-15T10:11:36.017Z,98385.22
2022-11-15T10:12:28.379Z,98381.53
2022-11-15T10:13:36.972Z,98386.47
2022-11-15T10:14:41.381Z,98386.19
2022-11-15T10:15:49.028Z,98385.94
2022-11-15T10:17:23.578Z,98383.91
2022-11-15T10:18:31.035Z,98373.34
2022-11-15T10:19:38.209Z,98368.69
2022-11-15T10:20:48.988Z,98377.75
2022-11-15T10:22:00.856Z,98371.16
2022-11-15T10:23:08.369Z,98369.94
2022-11-15T10:24:12.878Z,98372.97
2022-11-15T10:25:21.568Z,98374.34
2022-11-15T10:26:26.332Z,98366.91
2022-11-15T10:27:29.268Z,98381.38
2022-11-15T10:28:34.907Z,98362.72
2022-11-15T10:29:38.077Z,98372.88
2022-11-15T10:30:43.554Z,98361.34
2022-11-15T10:31:50.929Z,98368.91
2022-11-15T10:32:55.722Z,98367.69
2022-11-15T10:34:12.517Z,98363.69
2022-11-15T10:35:25.979Z,98357.91
2022-11-15T10:36:30.314Z,98365.19
2022-11-15T10:37:34.730Z,98356.78
2022-11-15T10:38:57.183Z,98357.91
2022-11-15T10:40:08.697Z,98359.13
2022-11-15T10:41:13.404Z,98349.22
2022-11-15T10:42:28.362Z,98359.94
2022-11-15T10:43:32.723Z,98353.44
2022-11-15T10:44:44.860Z,98357.31
2022-11-15T10:45:51.160Z,98349.88
2022-11-15T10:47:37.867Z,98345.72
2022-11-15T10:48:43.291Z,98344.16
2022-11-15T10:49:56.164Z,98347.72
2022-11-15T10:51:00.819Z,98343.88
2022-11-15T10:52:06.159Z,98344.09
2022-11-15T10:53:15.269Z,98338.28
2022-11-15T10:54:23.671Z,98332.63
2022-11-15T10:55:30.657Z,98339.78
2022-11-15T10:56:34.591Z,98339.19
2022-11-15T10:57:39.374Z,98329.94
2022-11-15T10:58:46.019Z,98330.31
2022-11-15T10:59:49.995Z,98324.66
2022-11-15T11:00:56.079Z,98325.72
2022-11-15T11:01:59.280Z,98336.28
2022-11-15T11:03:04.715Z,98332.25
2022-11-15T11:04:10.079Z,98328.38
2022-11-15T11:05:28.477Z,98323.66
2022-11-15T11:06:32.670Z,98331.22
2022-11-15T11:07:36.717Z,98335.47
2022-11-15T11:08:41.038Z,98336.13
2022-11-15T11:09:43.881Z,98328.16
2022-11-15T11:11:00.071Z,98328.00
2022-11-15T11:12:08.000Z,98330.34
2022-11-15T11:13:15.668Z,98331.16
2022-11-15T11:14:24.348Z,98336.22
2022-11-15T11:15:30.738Z,98326.75
2022-11-15T11:16:43.135Z,98331.81
2022-11-15T11:18:00.589Z,98334.28
2022-11-15T11:19:10.848Z,98328.09
2022-11-15T11:20:21.649Z,98337.13
2022-11-15T11:21:40.479Z,98336.81
2022-11-15T11:23:06.723Z,98332.94
2022-11-15T11:24:16.083Z,98336.38
2022-11-15T11:25:25.804Z,98331.13
2022-11-15T11:26:41.552Z,98327.25
2022-11-15T11:27:57.477Z,98329.59
2022-11-15T11:29:07.755Z,98325.00
2022-11-15T11:30:18.619Z,98320.28
2022-11-15T11:31:26.836Z,98324.09
2022-11-15T11:32:44.948Z,98324.59
2022-11-15T11:33:55.379Z,98317.09
2022-11-15T11:35:03.098Z,98317.78
2022-11-15T11:36:16.517Z,98317.34
2022-11-15T11:37:26.356Z,98304.91
2022-11-15T11:38:50.903Z,98303.25
2022-11-15T11:40:10.321Z,98305.44
2022-11-15T11:41:26.317Z,98302.34
2022-11-15T11:42:39.820Z,98298.13
2022-11-15T11:43:53.594Z,98293.59
2022-11-15T11:45:03.146Z,98295.13
2022-11-15T11:46:27.885Z,98291.16
2022-11-15T11:47:36.076Z,98289.22
2022-11-15T11:48:43.495Z,98294.19
2022-11-15T11:49:51.118Z,98288.28
2022-11-15T11:51:06.790Z,98294.06
2022-11-15T11:52:14.458Z,98286.19
2022-11-15T11:53:30.628Z,98282.75
2022-11-15T11:54:41.087Z,98281.25
2022-11-15T11:55:48.488Z,98269.28
2022-11-15T11:56:53.725Z,98274.84
2022-11-15T11:58:06.135Z,98279.44
2022-11-15T11:59:14.638Z,98270.53
2022-11-15T12:00:20.600Z,98269.53
2022-11-15T12:01:28.338Z,98268.88
2022-11-15T12:02:36.456Z,98262.66
2022-11-15T12:03:43.527Z,98265.09
2022-11-15T12:04:52.289Z,98262.00
2022-11-15T12:05:57.724Z,98259.09
2022-11-15T12:07:05.889Z,98265.97
2022-11-15T12:08:26.648Z,98259.75
2022-11-15T12:09:35.017Z,98261.72
2022-11-15T12:10:40.035Z,98259.22
2022-11-15T12:11:52.056Z,98258.41
2022-11-15T12:13:00.654Z,98254.63
2022-11-15T12:14:08.769Z,98260.66
2022-11-15T12:15:16.714Z,98265.31
2022-11-15T12:16:24.347Z,98261.03
2022-11-15T12:17:33.344Z,98261.97
2022-11-15T12:18:36.118Z,98261.38
2022-11-15T12:19:42.050Z,98260.53
2022-11-15T12:20:54.769Z,98263.09
2022-11-15T12:22:02.337Z,98257.13
2022-11-15T12:23:09.420Z,98258.88
2022-11-15T12:24:18.359Z,98249.31
2022-11-15T12:25:24.529Z,98250.06
2022-11-15T12:26:30.306Z,98256.06
2022-11-15T12:27:37.923Z,98254.19
2022-11-15T12:29:04.836Z,98252.31
2022-11-15T12:30:14.976Z,98253.50
2022-11-15T12:31:22.327Z,98255.25
2022-11-15T12:32:31.628Z,98250.44
2022-11-15T12:33:37.889Z,98248.41
2022-11-15T12:34:50.681Z,98246.06
2022-11-15T12:36:01.880Z,98248.03
2022-11-15T12:37:57.768Z,98247.22
2022-11-15T12:39:06.243Z,98238.66
2022-11-15T12:40:35.556Z,98241.28
2022-11-15T12:41:41.204Z,98236.88
2022-11-15T12:42:59.781Z,98237.56
2022-11-15T12:44:05.116Z,98233.16
2022-11-15T12:45:26.688Z,98235.63
2022-11-15T12:47:07.138Z,98240.69
2022-11-15T12:49:00.222Z,98231.19
2022-11-15T12:50:06.559Z,98232.03
2022-11-15T12:51:09.697Z,98237.94
2022-11-15T12:52:14.180Z,98236.97
2022-11-15T12:53:29.000Z,98237.63
2022-11-15T12:55:01.558Z,98230.75
2022-11-15T12:56:20.887Z,98226.78
2022-11-15T12:57:37.925Z,98224.50
2022-11-15T12:58:58.101Z,98228.22
2022-11-15T13:00:47.336Z,98227.53
2022-11-15T13:02:04.184Z,98231.56
2022-11-15T13:03:31.046Z,98222.38
2022-11-15T13:04:35.674Z,98223.63
2022-11-15T13:06:06.954Z,98220.63
2022-11-15T13:07:49.658Z,98215.03
2022-11-15T13:08:54.100Z,98212.03
2022-11-15T13:09:57.659Z,98213.81
2022-11-15T13:11:43.418Z,98209.56
2022-11-15T13:13:00.370Z,98207.56
2022-11-15T13:14:48.811Z,98212.09
2022-11-15T13:15:59.613Z,98203.03
2022-11-15T13:17:04.247Z,98205.66
2022-11-15T13:18:37.264Z,98198.78
2022-11-15T13:19:40.981Z,98205.97
2022-11-15T13:20:48.336Z,98196.47
2022-11-15T13:22:11.728Z,98203.34
2022-11-15T13:23:18.329Z,98204.59
2022-11-15T13:24:21.997Z,98202.00
2022-11-15T13:25:54.486Z,98207.22
2022-11-15T13:26:59.143Z,98198.00
2022-11-15T13:28:07.737Z,98193.09
2022-11-15T13:29:22.580Z,98192.41
2022-11-15T13:30:27.382Z,98193.38
2022-11-15T13:31:39.117Z,98189.25
2022-11-15T13:32:43.958Z,98190.22
2022-11-15T13:33:49.077Z,98188.75
2022-11-15T13:34:54.697Z,98189.84
2022-11-15T13:35:59.734Z,98187.38
2022-11-15T13:37:05.934Z,98179.69
2022-11-15T13:38:21.571Z,98182.31
2022-11-15T13:39:30.909Z,98185.03
2022-11-15T13:40:38.541Z,98186.72
2022-11-15T13:41:49.302Z,98184.91
2022-11-15T13:42:52.925Z,98191.25
2022-11-15T13:43:59.130Z,98178.47
2022-11-15T13:45:06.921Z,98176.81
2022-11-15T13:46:14.615Z,98181.09
2022-11-15T13:47:22.298Z,98175.16
2022-11-15T13:48:26.640Z,98173.69
2022-11-15T13:49:32.967Z,98169.56
2022-11-15T13:50:39.436Z,98167.09
2022-11-15T13:51:47.369Z,98171.78
2022-11-15T13:52:53.793Z,98174.69
2022-11-15T13:54:02.692Z,98165.34
2022-11-15T13:55:12.368Z,98158.34
2022-11-15T13:56:18.140Z,98161.91
2022-11-15T13:57:25.279Z,98157.66
2022-11-15T13:58:29.738Z,98159.31
2022-11-15T13:59:36.971Z,98158.50
2022-11-15T14:00:44.091Z,98158.34
2022-11-15T14:01:48.619Z,98155.59
2022-11-15T14:02:52.221Z,98156.25
2022-11-15T14:03:59.614Z,98159.03
2022-11-15T14:05:07.094Z,98155.44
2022-11-15T14:06:13.436Z,98159.69
2022-11-15T14:07:21.395Z,98162.31
2022-11-15T14:08:26.559Z,98153.50
2022-11-15T14:09:41.534Z,98162.16
2022-11-15T14:10:44.856Z,98162.97
2022-11-15T14:11:53.563Z,98155.13
2022-11-15T14:12:58.009Z,98157.75
2022-11-15T14:14:14.797Z,98154.31
2022-11-15T14:15:29.018Z,98152.00
2022-11-15T14:16:35.363Z,98147.06
2022-11-15T14:17:45.738Z,98145.44
2022-11-15T14:18:55.836Z,98146.69
2022-11-15T14:20:01.595Z,98148.63
2022-11-15T14:21:08.556Z,98147.09
2022-11-15T14:22:23.015Z,98137.78
2022-11-15T14:23:29.100Z,98154.41
2022-11-15T14:24:34.416Z,98144.09
2022-11-15T14:25:38.891Z,98145.91
2022-11-15T14:26:43.579Z,98143.44
2022-11-15T14:28:14.449Z,98145.34
2022-11-15T14:29:34.892Z,98143.03
2022-11-15T14:30:51.390Z,98144.28
2022-11-15T14:32:14.237Z,98148.00
2022-11-15T14:33:32.647Z,98143.88
2022-11-15T14:35:11.554Z,98136.22
2022-11-15T14:36:24.777Z,98142.53
2022-11-15T14:37:32.737Z,98138.28
2022-11-15T14:38:38.639Z,98132.22
2022-11-15T14:39:41.855Z,98137.59
2022-11-15T14:40:46.480Z,98128.94
2022-11-15T14:41:50.658Z,98127.28
2022-11-15T14:42:55.234Z,98127.44
2022-11-15T14:44:13.271Z,98124.16
2022-11-15T14:45:20.858Z,98127.81
2022-11-15T14:46:25.238Z,98129.75
2022-11-15T14:47:29.512Z,98125.50
2022-11-15T14:48:34.497Z,98133.47
2022-11-15T14:49:37.982Z,98123.19
2022-11-15T14:51:21.897Z,98127.56
2022-11-15T14:53:08.503Z,98124.72
2022-11-15T14:54:26.697Z,98126.78
2022-11-15T14:55:39.319Z,98120.06
2022-11-15T14:56:45.344Z,98124.59
2022-11-15T14:57:49.959Z,98119.53
2022-11-15T14:58:57.470Z,98113.59
2022-11-15T15:00:02.045Z,98110.16
2022-11-15T15:01:26.150Z,98108.69
2022-11-15T15:02:30.956Z,98105.38
2022-11-15T15:03:47.199Z,98109.78
2022-11-15T15:04:57.180Z,98105.66
2022-11-15T15:06:06.845Z,98092.91
2022-11-15T15:07:18.098Z,98106.25
2022-11-15T15:08:44.863Z,98103.22
2022-11-15T15:10:24.498Z,98106.09
2022-11-15T15:11:28.566Z,98113.50
2022-11-15T15:12:38.615Z,98109.53
2022-11-15T15:13:43.918Z,98114.22
2022-11-15T15:14:49.223Z,98109.41
2022-11-15T15:15:54.563Z,98103.66
2022-11-15T15:16:58.914Z,98103.91
2022-11-15T15:18:03.901Z,98103.25
2022-11-15T15:19:08.568Z,98105.16
2022-11-15T15:20:12.862Z,98102.00
2022-11-15T15:21:37.603Z,98107.47
2022-11-15T15:22:50.553Z,98099.41
2022-11-15T15:24:03.604Z,98101.44
2022-11-15T15:25:23.650Z,98101.88
2022-11-15T15:26:28.376Z,98108.44
2022-11-15T15:27:32.840Z,98099.38
2022-11-15T15:28:37.598Z,98097.16
2022-11-15T15:30:21.012Z,98094.84
2022-11-15T15:31:26.163Z,98100.59